createdAt,value
2018-09-27T00:01:14.333Z,8.40
2018-09-27T00:03:41.745Z,8.40
2018-09-27T00:06:09.293Z,8.30
2018-09-27T00:08:36.713Z,8.30
2018-09-27T00:11:04.115Z,8.30
2018-09-27T00:13:31.526Z,8.30
2018-09-27T00:15:58.941Z,8.20
2018-09-27T00:18:26.364Z,8.20
2018-09-27T00:20:53.754Z,8.10
2018-09-27T00:23:21.182Z,8.10
2018-09-27T00:25:48.587Z,8.10
2018-09-27T00:28:15.973Z,8.00
2018-09-27T00:30:43.386Z,8.00
2018-09-27T00:33:10.786Z,8.00
2018-09-27T00:35:38.189Z,8.00
2018-09-27T00:38:05.568Z,8.00
2018-09-27T00:40:32.981Z,7.90
2018-09-27T00:43:00.402Z,7.80
2018-09-27T00:45:27.805Z,7.70
2018-09-27T00:47:55.233Z,7.70
2018-09-27T00:50:22.637Z,7.80
2018-09-27T00:52:50.046Z,7.80
2018-09-27T00:55:17.442Z,7.80
2018-09-27T00:57:44.833Z,7.70
2018-09-27T01:00:12.249Z,7.60
2018-09-27T01:02:39.654Z,7.50
2018-09-27T01:05:07.033Z,7.50
2018-09-27T01:07:34.449Z,7.40
2018-09-27T01:10:01.896Z,7.40
2018-09-27T01:12:29.260Z,7.30
2018-09-27T01:14:56.682Z,7.30
2018-09-27T01:17:24.097Z,7.20
2018-09-27T01:19:51.525Z,7.30
2018-09-27T01:22:18.933Z,7.40
2018-09-27T01:24:46.366Z,7.40
2018-09-27T01:27:13.757Z,7.40
2018-09-27T01:29:41.268Z,7.40
2018-09-27T01:32:08.657Z,7.40
2018-09-27T01:34:36.037Z,7.40
2018-09-27T01:37:03.424Z,7.40
2018-09-27T01:39:30.811Z,7.50
2018-09-27T01:41:58.213Z,7.70
2018-09-27T01:44:25.623Z,7.90
2018-09-27T01:46:53.021Z,8.00
2018-09-27T01:49:20.437Z,8.10
2018-09-27T01:51:47.836Z,8.00
2018-09-27T01:54:15.226Z,8.00
2018-09-27T01:56:42.630Z,7.80
2018-09-27T01:59:10.017Z,7.70
2018-09-27T02:01:37.426Z,7.60
2018-09-27T02:04:04.829Z,7.50
2018-09-27T02:06:32.229Z,7.40
2018-09-27T02:08:59.613Z,7.40
2018-09-27T02:11:27.029Z,7.50
2018-09-27T02:13:54.450Z,7.50
2018-09-27T02:16:21.852Z,7.50
2018-09-27T02:18:49.303Z,7.50
2018-09-27T02:21:16.709Z,7.50
2018-09-27T02:23:44.110Z,7.50
2018-09-27T02:26:11.497Z,7.40
2018-09-27T02:28:38.909Z,7.40
2018-09-27T02:31:06.329Z,7.40
2018-09-27T02:33:33.720Z,7.30
2018-09-27T02:36:01.141Z,7.20
2018-09-27T02:38:28.517Z,7.10
2018-09-27T02:40:55.977Z,7.10
2018-09-27T02:43:23.381Z,7.00
2018-09-27T02:45:51.041Z,7.00
2018-09-27T02:48:18.469Z,6.90
2018-09-27T02:50:45.876Z,6.90
2018-09-27T02:53:13.279Z,6.90
2018-09-27T02:55:40.710Z,6.90
2018-09-27T02:58:08.156Z,6.90
2018-09-27T03:00:35.553Z,6.90
2018-09-27T03:03:02.940Z,6.90
2018-09-27T03:05:30.554Z,7.10
2018-09-27T03:07:57.950Z,7.10
2018-09-27T03:10:25.360Z,7.10
2018-09-27T03:12:52.785Z,7.10
2018-09-27T03:15:20.194Z,7.10
2018-09-27T03:17:47.618Z,7.10
2018-09-27T03:20:15.034Z,7.10
2018-09-27T03:22:42.454Z,7.20
2018-09-27T03:25:09.869Z,7.20
2018-09-27T03:27:37.281Z,7.30
2018-09-27T03:30:04.753Z,7.30
2018-09-27T03:35:05.265Z,7.30
2018-09-27T03:37:32.681Z,7.30
2018-09-27T03:40:00.192Z,7.30
2018-09-27T03:42:27.515Z,7.30
2018-09-27T03:44:54.933Z,7.40
2018-09-27T03:47:22.336Z,7.40
2018-09-27T03:49:49.749Z,7.30
2018-09-27T03:52:17.162Z,7.20
2018-09-27T03:54:44.590Z,7.20
2018-09-27T03:57:11.982Z,7.30
2018-09-27T03:59:39.474Z,7.30
2018-09-27T04:02:06.979Z,7.30
2018-09-27T04:04:34.418Z,7.20
2018-09-27T04:07:01.850Z,7.10
2018-09-27T04:09:29.269Z,7.10
2018-09-27T04:11:56.677Z,7.00
2018-09-27T04:14:24.139Z,6.90
2018-09-27T04:16:51.545Z,6.80
2018-09-27T04:19:19.121Z,6.80
2018-09-27T04:21:46.566Z,6.80
2018-09-27T04:24:13.933Z,6.70
2018-09-27T04:26:41.354Z,6.70
2018-09-27T04:29:09.146Z,6.80
2018-09-27T04:31:36.560Z,6.90
2018-09-27T04:34:03.961Z,6.90
2018-09-27T04:36:31.370Z,7.00
2018-09-27T04:38:58.785Z,7.10
2018-09-27T04:41:26.182Z,7.10
2018-09-27T04:43:53.594Z,7.10
2018-09-27T04:46:20.998Z,7.20
2018-09-27T04:48:48.404Z,7.20
2018-09-27T04:51:15.802Z,7.20
2018-09-27T04:53:43.253Z,7.20
2018-09-27T04:56:10.769Z,7.20
2018-09-27T04:58:38.340Z,7.30
2018-09-27T05:01:06.031Z,7.40
2018-09-27T05:03:33.462Z,7.50
2018-09-27T05:06:00.927Z,7.50
2018-09-27T05:08:28.401Z,7.40
2018-09-27T05:10:55.861Z,7.30
2018-09-27T05:13:23.306Z,7.30
2018-09-27T05:15:50.800Z,7.20
2018-09-27T05:18:18.213Z,7.20
2018-09-27T05:20:45.646Z,7.20
2018-09-27T05:23:13.100Z,7.30
2018-09-27T05:25:40.575Z,7.30
2018-09-27T05:28:08.021Z,7.30
2018-09-27T05:30:35.452Z,7.30
2018-09-27T05:33:02.897Z,7.30
2018-09-27T05:35:30.329Z,7.30
2018-09-27T05:37:57.777Z,7.20
2018-09-27T05:40:25.261Z,7.20
2018-09-27T05:42:52.693Z,7.20
2018-09-27T05:45:20.129Z,7.20
2018-09-27T05:47:47.573Z,7.20
2018-09-27T05:50:15.035Z,7.30
2018-09-27T05:52:42.473Z,7.40
2018-09-27T05:55:09.953Z,7.40
2018-09-27T05:57:37.419Z,7.40
2018-09-27T06:00:04.957Z,7.50
2018-09-27T06:02:32.453Z,7.50
2018-09-27T06:04:59.942Z,7.50
2018-09-27T06:07:27.378Z,7.50
2018-09-27T06:09:54.841Z,7.50
2018-09-27T06:12:22.289Z,7.50
2018-09-27T06:14:49.747Z,7.50
2018-09-27T06:17:17.188Z,7.50
2018-09-27T06:19:44.640Z,7.60
2018-09-27T06:22:12.080Z,7.90
2018-09-27T06:24:39.537Z,8.00
2018-09-27T06:27:07.010Z,8.00
2018-09-27T06:29:34.445Z,8.00
2018-09-27T06:32:01.882Z,8.10
2018-09-27T06:34:29.304Z,8.20
2018-09-27T06:36:56.752Z,8.20
2018-09-27T06:39:24.222Z,8.20
2018-09-27T06:41:51.679Z,8.20
2018-09-27T06:44:19.109Z,8.20
2018-09-27T06:46:46.582Z,8.20
2018-09-27T06:49:14.037Z,8.20
2018-09-27T06:51:41.487Z,8.20
2018-09-27T06:54:08.913Z,8.30
2018-09-27T06:56:36.411Z,8.30
2018-09-27T06:59:03.838Z,8.40
2018-09-27T07:01:31.325Z,8.40
2018-09-27T07:03:58.773Z,8.50
2018-09-27T07:06:26.240Z,8.60
2018-09-27T07:08:53.673Z,8.60
2018-09-27T07:11:21.123Z,8.70
2018-09-27T07:13:48.560Z,8.80
2018-09-27T07:16:15.998Z,8.90
2018-09-27T07:18:43.511Z,8.90
2018-09-27T07:21:10.928Z,9.00
2018-09-27T07:23:38.381Z,9.10
2018-09-27T07:26:05.808Z,9.10
2018-09-27T07:28:33.283Z,9.20
2018-09-27T07:31:00.780Z,9.30
2018-09-27T07:33:28.237Z,9.30
2018-09-27T07:35:55.736Z,9.40
2018-09-27T07:38:23.195Z,9.50
2018-09-27T07:40:50.657Z,9.60
2018-09-27T07:43:18.085Z,9.70
2018-09-27T07:45:45.535Z,9.90
2018-09-27T07:48:12.971Z,10.00
2018-09-27T07:50:40.522Z,10.10
2018-09-27T07:53:07.873Z,10.20
2018-09-27T07:55:35.332Z,10.30
2018-09-27T07:58:02.785Z,10.40
2018-09-27T08:00:30.217Z,10.50
2018-09-27T08:02:57.842Z,10.60
2018-09-27T08:05:25.156Z,10.80
2018-09-27T08:07:52.642Z,10.80
2018-09-27T08:10:20.090Z,10.80
2018-09-27T08:12:47.537Z,11.00
2018-09-27T08:15:14.970Z,11.10
2018-09-27T08:17:42.400Z,11.30
2018-09-27T08:20:09.856Z,11.40
2018-09-27T08:22:37.325Z,11.50
2018-09-27T08:25:04.768Z,11.60
2018-09-27T08:27:32.341Z,11.70
2018-09-27T08:29:59.807Z,11.90
2018-09-27T08:32:27.276Z,12.00
2018-09-27T08:34:54.745Z,12.10
2018-09-27T08:37:22.217Z,12.20
2018-09-27T08:39:49.669Z,12.30
2018-09-27T08:42:17.100Z,12.50
2018-09-27T08:44:44.641Z,12.60
2018-09-27T08:47:12.026Z,12.80
2018-09-27T08:49:39.461Z,12.90
2018-09-27T08:52:06.889Z,13.10
2018-09-27T08:54:34.429Z,13.20
2018-09-27T08:57:01.881Z,13.30
2018-09-27T08:59:29.327Z,13.40
2018-09-27T09:01:56.769Z,13.60
2018-09-27T09:04:24.249Z,13.80
2018-09-27T09:06:51.702Z,13.90
2018-09-27T09:09:19.141Z,14.10
2018-09-27T09:11:46.581Z,14.10
2018-09-27T09:14:14.004Z,14.10
2018-09-27T09:16:41.449Z,14.30
2018-09-27T09:19:08.894Z,14.50
2018-09-27T09:21:36.474Z,14.60
2018-09-27T09:24:03.991Z,14.70
2018-09-27T09:26:31.640Z,14.50
2018-09-27T09:28:59.081Z,14.70
2018-09-27T09:31:26.545Z,14.70
2018-09-27T09:33:54.015Z,14.80
2018-09-27T09:36:21.620Z,15.00
2018-09-27T09:38:49.072Z,15.10
2018-09-27T09:41:16.575Z,15.20
2018-09-27T09:43:44.136Z,15.30
2018-09-27T09:46:11.614Z,15.50
2018-09-27T09:48:39.069Z,15.50
2018-09-27T09:51:06.545Z,15.70
2018-09-27T09:53:33.995Z,15.80
2018-09-27T09:56:01.451Z,15.80
2018-09-27T09:58:28.904Z,15.90
2018-09-27T10:00:56.363Z,16.10
2018-09-27T10:03:23.808Z,16.40
2018-09-27T10:05:51.277Z,16.50
2018-09-27T10:08:18.724Z,16.40
2018-09-27T10:10:46.190Z,16.40
2018-09-27T10:13:13.647Z,16.50
2018-09-27T10:15:41.105Z,16.70
2018-09-27T10:18:08.608Z,16.90
2018-09-27T10:20:36.072Z,17.10
2018-09-27T10:23:03.529Z,17.40
2018-09-27T10:25:30.968Z,17.40
2018-09-27T10:27:58.412Z,17.60
2018-09-27T10:30:25.870Z,17.40
2018-09-27T10:32:53.797Z,17.40
2018-09-27T10:35:21.254Z,17.40
2018-09-27T10:37:48.996Z,17.60
2018-09-27T10:40:16.453Z,17.70
2018-09-27T10:42:43.949Z,17.90
2018-09-27T10:45:11.427Z,18.10
2018-09-27T10:47:38.785Z,18.30
2018-09-27T10:50:06.418Z,18.50
2018-09-27T10:52:33.825Z,18.80
2018-09-27T10:55:01.226Z,19.10
2018-09-27T10:57:28.622Z,19.30
2018-09-27T10:59:56.042Z,20.10
2018-09-27T11:02:23.446Z,20.60
2018-09-27T11:04:50.903Z,21.10
2018-09-27T11:07:18.350Z,22.00
2018-09-27T11:09:45.898Z,22.80
2018-09-27T11:12:13.316Z,23.00
2018-09-27T11:14:40.741Z,23.60
2018-09-27T11:17:08.166Z,24.20
2018-09-27T11:19:35.592Z,24.40
2018-09-27T11:22:03.033Z,24.80
2018-09-27T11:24:30.413Z,24.70
2018-09-27T11:26:57.810Z,24.90
2018-09-27T11:30:30.486Z,25.30
2018-09-27T11:32:57.901Z,25.30
2018-09-27T11:35:25.329Z,25.50
2018-09-27T11:37:52.767Z,25.90
2018-09-27T11:40:20.193Z,26.20
2018-09-27T11:42:47.636Z,26.00
2018-09-27T11:45:15.007Z,25.90
2018-09-27T11:47:42.442Z,26.00
2018-09-27T11:50:09.937Z,25.20
2018-09-27T11:52:37.274Z,25.00
2018-09-27T11:55:04.717Z,25.20
2018-09-27T11:57:32.066Z,25.40
2018-09-27T11:59:59.474Z,26.40
2018-09-27T12:02:26.909Z,26.90
2018-09-27T12:04:54.728Z,26.70
2018-09-27T12:07:22.167Z,26.60
2018-09-27T12:09:49.537Z,26.40
2018-09-27T12:12:18.280Z,26.60
2018-09-27T12:14:45.654Z,26.50
2018-09-27T12:17:13.057Z,26.20
2018-09-27T12:19:40.509Z,26.90
2018-09-27T12:22:07.912Z,27.90
2018-09-27T12:24:35.297Z,28.00
2018-09-27T12:27:02.707Z,27.70
2018-09-27T12:29:30.110Z,28.10
2018-09-27T12:31:57.511Z,28.70
2018-09-27T12:34:25.186Z,29.30
2018-09-27T12:36:52.581Z,29.00
2018-09-27T12:39:19.997Z,29.30
2018-09-27T12:41:47.401Z,29.60
2018-09-27T12:44:14.793Z,29.60
2018-09-27T12:46:42.199Z,29.60
2018-09-27T12:49:09.605Z,29.20
2018-09-27T12:51:37.157Z,29.10
2018-09-27T12:54:04.497Z,29.10
2018-09-27T12:56:31.933Z,29.00
2018-09-27T12:58:59.337Z,29.70
2018-09-27T13:01:26.836Z,29.60
2018-09-27T13:03:54.211Z,28.90
2018-09-27T13:06:21.601Z,29.30
2018-09-27T13:08:49.201Z,29.90
2018-09-27T13:11:16.485Z,29.70
2018-09-27T13:13:43.918Z,30.00
2018-09-27T13:16:11.354Z,30.40
2018-09-27T13:18:38.753Z,30.60
2018-09-27T13:21:06.154Z,30.10
2018-09-27T13:23:33.578Z,29.50
2018-09-27T13:26:00.973Z,29.90
2018-09-27T13:28:28.526Z,29.70
2018-09-27T13:30:55.967Z,29.90
2018-09-27T13:33:23.360Z,30.30
2018-09-27T13:35:50.769Z,30.20
2018-09-27T13:38:18.192Z,30.50
2018-09-27T13:40:45.605Z,29.60
2018-09-27T13:43:13.008Z,29.10
2018-09-27T13:45:40.425Z,29.10
2018-09-27T13:48:07.829Z,29.10
2018-09-27T13:50:35.233Z,29.80
2018-09-27T13:53:02.661Z,30.20
2018-09-27T13:55:30.066Z,30.20
2018-09-27T13:57:57.486Z,30.40
2018-09-27T14:00:24.901Z,30.70
2018-09-27T14:02:52.365Z,30.50
2018-09-27T14:05:19.816Z,30.40
2018-09-27T14:07:47.374Z,30.70
2018-09-27T14:10:14.805Z,31.10
2018-09-27T14:12:42.210Z,30.70
2018-09-27T14:15:09.622Z,30.50
2018-09-27T14:17:37.018Z,30.80
2018-09-27T14:20:04.630Z,30.80
2018-09-27T14:22:32.045Z,30.10
2018-09-27T14:24:59.474Z,30.20
2018-09-27T14:27:26.866Z,30.00
2018-09-27T14:29:54.313Z,30.20
2018-09-27T14:32:22.015Z,30.20
2018-09-27T14:34:49.422Z,29.00
2018-09-27T14:37:16.830Z,29.20
2018-09-27T14:39:44.245Z,29.60
2018-09-27T14:42:11.658Z,29.60
2018-09-27T14:44:39.053Z,28.90
2018-09-27T14:47:06.445Z,29.50
2018-09-27T14:49:33.884Z,29.80
2018-09-27T14:52:01.282Z,29.80
2018-09-27T14:54:28.678Z,29.60
2018-09-27T14:56:56.074Z,29.60
2018-09-27T14:59:23.472Z,29.20
2018-09-27T15:01:50.887Z,29.00
2018-09-27T15:04:18.351Z,28.70
2018-09-27T15:06:45.725Z,29.00
2018-09-27T15:09:13.215Z,29.30
2018-09-27T15:11:40.759Z,29.50
2018-09-27T15:14:08.169Z,29.50
2018-09-27T15:16:35.933Z,29.60
2018-09-27T15:19:03.341Z,29.20
2018-09-27T15:21:30.744Z,29.60
2018-09-27T15:23:58.477Z,29.60
2018-09-27T15:26:25.877Z,29.50
2018-09-27T15:28:53.291Z,29.20
2018-09-27T15:31:20.701Z,29.50
2018-09-27T15:33:48.129Z,29.50
2018-09-27T15:36:15.603Z,29.60
2018-09-27T15:38:42.945Z,29.60
2018-09-27T15:41:10.365Z,29.40
2018-09-27T15:43:37.749Z,29.10
2018-09-27T15:46:05.154Z,29.30
2018-09-27T15:48:32.544Z,29.10
2018-09-27T15:51:00.152Z,29.20
2018-09-27T15:53:27.574Z,29.20
2018-09-27T15:55:54.987Z,29.20
2018-09-27T15:58:22.388Z,29.00
2018-09-27T16:00:49.815Z,28.90
2018-09-27T16:03:17.238Z,28.50
2018-09-27T16:05:44.628Z,28.10
2018-09-27T16:08:12.111Z,27.40
2018-09-27T16:10:39.513Z,27.40
2018-09-27T16:13:06.917Z,27.40
2018-09-27T16:15:34.334Z,27.20
2018-09-27T16:18:01.740Z,27.10
2018-09-27T16:20:29.151Z,27.00
2018-09-27T16:22:56.565Z,26.90
2018-09-27T16:25:23.977Z,26.70
2018-09-27T16:27:51.406Z,26.60
2018-09-27T16:30:18.811Z,26.40
2018-09-27T16:32:46.245Z,26.20
2018-09-27T16:35:13.682Z,26.00
2018-09-27T16:37:41.094Z,25.60
2018-09-27T16:40:08.493Z,24.90
2018-09-27T16:42:35.921Z,24.30
2018-09-27T16:45:03.322Z,23.90
2018-09-27T16:47:30.802Z,23.40
2018-09-27T16:49:58.133Z,23.00
2018-09-27T16:52:25.549Z,22.70
2018-09-27T16:54:52.949Z,22.30
2018-09-27T16:57:20.366Z,21.80
2018-09-27T16:59:47.875Z,21.50
2018-09-27T17:02:15.293Z,21.30
2018-09-27T17:04:42.698Z,21.20
2018-09-27T17:07:10.116Z,21.10
2018-09-27T17:09:37.513Z,20.90
2018-09-27T17:12:04.952Z,20.80
2018-09-27T17:14:32.358Z,20.70
2018-09-27T17:16:59.805Z,20.60
2018-09-27T17:19:27.205Z,20.50
2018-09-27T17:21:54.617Z,20.40
2018-09-27T17:24:22.074Z,20.40
2018-09-27T17:26:49.464Z,20.30
2018-09-27T17:29:16.865Z,20.20
2018-09-27T17:31:44.356Z,20.10
2018-09-27T17:34:11.682Z,20.00
2018-09-27T17:36:39.073Z,19.90
2018-09-27T17:39:06.921Z,19.80
2018-09-27T17:41:34.334Z,19.80
2018-09-27T17:44:01.757Z,19.70
2018-09-27T17:46:29.173Z,19.50
2018-09-27T17:48:56.597Z,19.40
2018-09-27T17:51:24.006Z,19.20
2018-09-27T17:53:51.397Z,19.00
2018-09-27T17:56:18.812Z,18.80
2018-09-27T17:58:46.240Z,18.70
2018-09-27T18:01:13.625Z,18.60
2018-09-27T18:03:41.018Z,18.40
2018-09-27T18:06:08.445Z,18.40
2018-09-27T18:08:35.829Z,18.30
2018-09-27T18:11:03.241Z,18.30
2018-09-27T18:13:30.694Z,18.30
2018-09-27T18:15:58.078Z,18.30
2018-09-27T18:18:25.494Z,18.30
2018-09-27T18:20:52.881Z,18.30
2018-09-27T18:23:20.278Z,18.20
2018-09-27T18:25:47.786Z,18.10
2018-09-27T18:28:15.201Z,18.00
2018-09-27T18:30:42.621Z,17.80
2018-09-27T18:33:10.471Z,17.70
2018-09-27T18:35:37.890Z,17.70
2018-09-27T18:38:05.421Z,17.60
2018-09-27T18:40:32.766Z,17.50
2018-09-27T18:43:00.227Z,17.40
2018-09-27T18:45:27.613Z,17.30
2018-09-27T18:47:55.045Z,17.10
2018-09-27T18:50:22.489Z,17.00
2018-09-27T18:52:49.893Z,16.90
2018-09-27T18:55:17.401Z,16.70
2018-09-27T18:57:44.860Z,16.70
2018-09-27T19:00:12.262Z,16.50
2018-09-27T19:02:39.761Z,16.50
2018-09-27T19:05:07.208Z,16.40
2018-09-27T19:07:34.686Z,16.40
2018-09-27T19:10:02.134Z,16.40
2018-09-27T19:12:29.569Z,16.30
2018-09-27T19:17:52.660Z,16.00
2018-09-27T19:20:20.067Z,15.90
2018-09-27T19:22:47.576Z,15.90
2018-09-27T19:25:14.974Z,15.90
2018-09-27T19:27:42.387Z,15.90
2018-09-27T19:30:09.791Z,15.80
2018-09-27T19:32:37.253Z,15.80
2018-09-27T19:35:04.666Z,15.70
2018-09-27T19:37:32.079Z,15.70
2018-09-27T19:39:59.528Z,15.70
2018-09-27T19:42:26.968Z,15.60
2018-09-27T19:44:54.398Z,15.60
2018-09-27T19:47:21.810Z,15.50
2018-09-27T19:49:49.242Z,15.50
2018-09-27T19:52:16.689Z,15.40
2018-09-27T19:54:44.057Z,15.30
2018-09-27T19:57:11.491Z,15.30
2018-09-27T19:59:38.910Z,15.20
2018-09-27T20:02:06.387Z,15.10
2018-09-27T20:04:33.878Z,15.00
2018-09-27T20:07:01.218Z,15.00
2018-09-27T20:09:28.679Z,14.90
2018-09-27T20:11:56.111Z,14.80
2018-09-27T20:14:23.512Z,14.70
2018-09-27T20:16:51.014Z,14.60
2018-09-27T20:19:18.367Z,14.60
2018-09-27T20:21:45.791Z,14.50
2018-09-27T20:24:13.210Z,14.50
2018-09-27T20:26:40.632Z,14.40
2018-09-27T20:29:08.066Z,14.40
2018-09-27T20:31:35.703Z,14.30
2018-09-27T20:34:03.246Z,14.30
2018-09-27T20:36:30.715Z,14.20
2018-09-27T20:38:58.244Z,14.20
2018-09-27T20:41:26.014Z,14.10
2018-09-27T20:43:53.510Z,14.10
2018-09-27T20:46:20.939Z,14.00
2018-09-27T20:48:48.494Z,14.00
2018-09-27T20:51:19.733Z,14.00
2018-09-27T20:53:47.147Z,13.90
2018-09-27T20:56:14.571Z,13.90
2018-09-27T20:58:42.012Z,13.90
2018-09-27T21:01:09.445Z,13.90
2018-09-27T21:03:36.851Z,13.80
2018-09-27T21:06:04.359Z,13.70
2018-09-27T21:08:31.847Z,13.70
2018-09-27T21:10:59.295Z,13.70
2018-09-27T21:13:26.727Z,13.70
2018-09-27T21:15:54.245Z,13.60
2018-09-27T21:18:21.669Z,13.70
2018-09-27T21:20:49.103Z,13.70
2018-09-27T21:23:16.534Z,13.70
2018-09-27T21:25:43.938Z,13.60
2018-09-27T21:28:11.382Z,13.50
2018-09-27T21:30:38.802Z,13.50
2018-09-27T21:33:06.350Z,13.40
2018-09-27T21:35:33.818Z,13.30
2018-09-27T21:38:01.253Z,13.30
2018-09-27T21:40:28.731Z,13.20
2018-09-27T21:42:56.179Z,13.30
2018-09-27T21:45:23.578Z,13.30
2018-09-27T21:47:51.290Z,13.30
2018-09-27T21:50:18.925Z,13.20
2018-09-27T21:52:46.286Z,13.20
2018-09-27T21:55:13.693Z,13.20
2018-09-27T21:57:41.086Z,13.10
2018-09-27T22:00:08.487Z,13.10
2018-09-27T22:02:35.978Z,13.10
2018-09-27T22:05:03.434Z,13.00
2018-09-27T22:07:30.846Z,12.90
2018-09-27T22:09:58.493Z,12.90
2018-09-27T22:12:26.156Z,12.90
2018-09-27T22:14:54.009Z,12.80
2018-09-27T22:17:21.977Z,12.80
2018-09-27T22:19:49.526Z,12.80
2018-09-27T22:22:17.108Z,12.70
2018-09-27T22:24:44.718Z,12.70
2018-09-27T22:27:12.252Z,12.70
2018-09-27T22:29:39.661Z,12.70
2018-09-27T22:32:07.090Z,12.60
2018-09-27T22:34:34.482Z,12.60
2018-09-27T22:37:01.877Z,12.60
2018-09-27T22:39:29.289Z,12.60
2018-09-27T22:41:56.709Z,12.50
2018-09-27T22:44:24.117Z,12.50
2018-09-27T22:46:51.513Z,12.50
2018-09-27T22:49:19.038Z,12.40
2018-09-27T22:51:46.462Z,12.40
2018-09-27T22:54:13.854Z,12.40
2018-09-27T22:56:41.290Z,12.30
2018-09-27T22:59:08.721Z,12.30
2018-09-27T23:01:36.133Z,12.30
2018-09-27T23:04:04.413Z,12.20
2018-09-27T23:06:31.841Z,12.20
2018-09-27T23:08:59.250Z,12.20
2018-09-27T23:11:31.490Z,12.30
2018-09-27T23:13:59.090Z,12.30
2018-09-27T23:16:26.533Z,12.30
2018-09-27T23:18:53.935Z,12.20
2018-09-27T23:21:21.343Z,12.20
2018-09-27T23:23:48.769Z,12.10
2018-09-27T23:26:16.190Z,12.10
2018-09-27T23:28:43.580Z,12.00
2018-09-27T23:31:10.965Z,12.10
2018-09-27T23:33:38.373Z,12.00
2018-09-27T23:36:05.866Z,12.10
2018-09-27T23:38:33.287Z,12.10
2018-09-27T23:41:00.682Z,12.10
2018-09-27T23:43:28.098Z,12.10
2018-09-27T23:45:55.495Z,12.10
2018-09-27T23:48:23.865Z,12.10
2018-09-27T23:50:51.282Z,12.00
2018-09-27T23:53:18.662Z,12.00
2018-09-27T23:55:46.050Z,12.00
2018-09-27T23:58:13.459Z,12.00
